sensor_id;sensor_type;location;lat;lon;timestamp;temperature;humidity
54126;DHT22;40360;52.992;6.796;2024-01-30T00:01:56;5.70;99.90
54126;DHT22;40360;52.992;6.796;2024-01-30T00:04:22;5.70;99.90
54126;DHT22;40360;52.992;6.796;2024-01-30T00:06:49;5.60;99.90
54126;DHT22;40360;52.992;6.796;2024-01-30T00:09:21;5.50;99.90
54126;DHT22;40360;52.992;6.796;2024-01-30T00:11:48;5.50;99.90
54126;DHT22;40360;52.992;6.796;2024-01-30T00:14:14;5.50;99.90
54126;DHT22;40360;52.992;6.796;2024-01-30T00:16:40;5.50;99.90
54126;DHT22;40360;52.992;6.796;2024-01-30T00:19:06;5.50;99.90
54126;DHT22;40360;52.992;6.796;2024-01-30T00:21:35;5.40;99.90
54126;DHT22;40360;52.992;6.796;2024-01-30T00:24:01;5.40;99.90
54126;DHT22;40360;52.992;6.796;2024-01-30T00:26:27;5.40;99.90
54126;DHT22;40360;52.992;6.796;2024-01-30T00:28:53;5.30;99.90
54126;DHT22;40360;52.992;6.796;2024-01-30T00:31:18;5.20;99.90
54126;DHT22;40360;52.992;6.796;2024-01-30T00:33:44;5.20;99.90
54126;DHT22;40360;52.992;6.796;2024-01-30T00:36:10;5.20;99.90
54126;DHT22;40360;52.992;6.796;2024-01-30T00:38:36;5.20;99.90
54126;DHT22;40360;52.992;6.796;2024-01-30T00:41:02;5.20;99.90
54126;DHT22;40360;52.992;6.796;2024-01-30T00:43:28;5.10;99.90
54126;DHT22;40360;52.992;6.796;2024-01-30T00:45:55;5.10;99.90
54126;DHT22;40360;52.992;6.796;2024-01-30T00:48:20;5.20;99.90
54126;DHT22;40360;52.992;6.796;2024-01-30T00:50:46;5.20;99.90
54126;DHT22;40360;52.992;6.796;2024-01-30T00:53:19;5.20;99.90
54126;DHT22;40360;52.992;6.796;2024-01-30T00:55:45;5.20;99.90
54126;DHT22;40360;52.992;6.796;2024-01-30T00:58:11;5.20;99.90
54126;DHT22;40360;52.992;6.796;2024-01-30T01:00:39;5.30;99.90
54126;DHT22;40360;52.992;6.796;2024-01-30T01:03:05;5.20;99.90
54126;DHT22;40360;52.992;6.796;2024-01-30T01:05:31;5.20;99.90
54126;DHT22;40360;52.992;6.796;2024-01-30T01:07:56;5.20;99.90
54126;DHT22;40360;52.992;6.796;2024-01-30T01:10:22;5.20;99.90
54126;DHT22;40360;52.992;6.796;2024-01-30T01:12:48;5.20;99.90
54126;DHT22;40360;52.992;6.796;2024-01-30T01:15:14;5.20;99.90
54126;DHT22;40360;52.992;6.796;2024-01-30T01:17:40;5.30;99.90
54126;DHT22;40360;52.992;6.796;2024-01-30T01:20:08;5.20;99.90
54126;DHT22;40360;52.992;6.796;2024-01-30T01:22:34;5.20;99.90
54126;DHT22;40360;52.992;6.796;2024-01-30T01:25:01;5.20;99.90
54126;DHT22;40360;52.992;6.796;2024-01-30T01:27:27;5.20;99.90
54126;DHT22;40360;52.992;6.796;2024-01-30T01:29:57;5.20;99.90
54126;DHT22;40360;52.992;6.796;2024-01-30T01:32:22;5.20;99.90
54126;DHT22;40360;52.992;6.796;2024-01-30T01:34:48;5.30;99.90
54126;DHT22;40360;52.992;6.796;2024-01-30T01:37:14;5.30;99.90
54126;DHT22;40360;52.992;6.796;2024-01-30T01:39:48;5.30;99.90
54126;DHT22;40360;52.992;6.796;2024-01-30T01:42:14;5.40;99.90
54126;DHT22;40360;52.992;6.796;2024-01-30T01:44:40;5.50;99.90
54126;DHT22;40360;52.992;6.796;2024-01-30T01:47:06;5.60;99.90
54126;DHT22;40360;52.992;6.796;2024-01-30T01:49:32;5.60;99.90
54126;DHT22;40360;52.992;6.796;2024-01-30T01:51:58;5.70;99.90
54126;DHT22;40360;52.992;6.796;2024-01-30T01:54:25;5.80;99.90
54126;DHT22;40360;52.992;6.796;2024-01-30T01:56:52;5.70;99.90
54126;DHT22;40360;52.992;6.796;2024-01-30T01:59:20;5.80;99.90
54126;DHT22;40360;52.992;6.796;2024-01-30T02:01:46;5.80;99.90
54126;DHT22;40360;52.992;6.796;2024-01-30T02:04:15;5.90;99.90
54126;DHT22;40360;52.992;6.796;2024-01-30T02:06:41;6.00;99.90
54126;DHT22;40360;52.992;6.796;2024-01-30T02:09:09;6.00;99.90
54126;DHT22;40360;52.992;6.796;2024-01-30T02:11:35;6.00;99.90
54126;DHT22;40360;52.992;6.796;2024-01-30T02:14:04;6.00;99.90
54126;DHT22;40360;52.992;6.796;2024-01-30T02:16:31;6.10;99.90
54126;DHT22;40360;52.992;6.796;2024-01-30T02:19:00;6.10;99.90
54126;DHT22;40360;52.992;6.796;2024-01-30T02:21:26;6.20;99.90
54126;DHT22;40360;52.992;6.796;2024-01-30T02:23:52;6.20;99.90
54126;DHT22;40360;52.992;6.796;2024-01-30T02:26:20;6.20;99.90
54126;DHT22;40360;52.992;6.796;2024-01-30T02:28:46;6.20;99.90
54126;DHT22;40360;52.992;6.796;2024-01-30T02:31:11;6.20;99.90
54126;DHT22;40360;52.992;6.796;2024-01-30T02:33:37;6.20;99.90
54126;DHT22;40360;52.992;6.796;2024-01-30T02:36:03;6.20;99.90
54126;DHT22;40360;52.992;6.796;2024-01-30T02:38:33;6.20;99.90
54126;DHT22;40360;52.992;6.796;2024-01-30T02:41:00;6.20;99.90
54126;DHT22;40360;52.992;6.796;2024-01-30T02:43:25;6.20;99.90
54126;DHT22;40360;52.992;6.796;2024-01-30T02:45:51;6.20;99.90
54126;DHT22;40360;52.992;6.796;2024-01-30T02:48:20;6.20;99.90
54126;DHT22;40360;52.992;6.796;2024-01-30T02:50:56;6.20;99.90
54126;DHT22;40360;52.992;6.796;2024-01-30T02:53:23;6.20;99.90
54126;DHT22;40360;52.992;6.796;2024-01-30T02:55:49;6.10;99.90
54126;DHT22;40360;52.992;6.796;2024-01-30T02:58:14;6.20;99.90
54126;DHT22;40360;52.992;6.796;2024-01-30T03:00:40;6.10;99.90
54126;DHT22;40360;52.992;6.796;2024-01-30T03:03:06;6.20;99.90
54126;DHT22;40360;52.992;6.796;2024-01-30T03:05:35;6.10;99.90
54126;DHT22;40360;52.992;6.796;2024-01-30T03:08:02;6.20;99.90
54126;DHT22;40360;52.992;6.796;2024-01-30T03:10:29;6.20;99.90
54126;DHT22;40360;52.992;6.796;2024-01-30T03:12:54;6.30;99.90
54126;DHT22;40360;52.992;6.796;2024-01-30T03:15:20;6.30;99.90
54126;DHT22;40360;52.992;6.796;2024-01-30T03:17:46;6.40;99.90
54126;DHT22;40360;52.992;6.796;2024-01-30T03:20:11;6.40;99.90
54126;DHT22;40360;52.992;6.796;2024-01-30T03:22:38;6.40;99.90
54126;DHT22;40360;52.992;6.796;2024-01-30T03:25:06;6.50;99.90
54126;DHT22;40360;52.992;6.796;2024-01-30T03:27:36;6.50;99.90
54126;DHT22;40360;52.992;6.796;2024-01-30T03:30:01;6.50;99.90
54126;DHT22;40360;52.992;6.796;2024-01-30T03:32:28;6.50;99.90
54126;DHT22;40360;52.992;6.796;2024-01-30T03:34:57;6.60;99.90
54126;DHT22;40360;52.992;6.796;2024-01-30T03:37:23;6.60;99.90
54126;DHT22;40360;52.992;6.796;2024-01-30T03:39:49;6.70;99.90
54126;DHT22;40360;52.992;6.796;2024-01-30T03:42:15;6.70;99.90
54126;DHT22;40360;52.992;6.796;2024-01-30T03:44:41;6.80;99.90
54126;DHT22;40360;52.992;6.796;2024-01-30T03:47:08;6.70;99.90
54126;DHT22;40360;52.992;6.796;2024-01-30T03:49:34;6.80;99.90
54126;DHT22;40360;52.992;6.796;2024-01-30T03:52:06;6.70;99.90
54126;DHT22;40360;52.992;6.796;2024-01-30T03:54:32;6.80;99.90
54126;DHT22;40360;52.992;6.796;2024-01-30T03:56:57;6.80;99.90
54126;DHT22;40360;52.992;6.796;2024-01-30T03:59:23;6.90;99.90
54126;DHT22;40360;52.992;6.796;2024-01-30T04:01:54;6.80;99.90
54126;DHT22;40360;52.992;6.796;2024-01-30T04:04:21;6.90;99.90
54126;DHT22;40360;52.992;6.796;2024-01-30T04:06:48;6.90;99.90
54126;DHT22;40360;52.992;6.796;2024-01-30T04:09:14;6.90;99.90
54126;DHT22;40360;52.992;6.796;2024-01-30T04:11:40;6.90;99.90
54126;DHT22;40360;52.992;6.796;2024-01-30T04:14:08;6.90;99.90
54126;DHT22;40360;52.992;6.796;2024-01-30T04:16:40;7.00;99.90
54126;DHT22;40360;52.992;6.796;2024-01-30T04:19:07;7.00;99.90
54126;DHT22;40360;52.992;6.796;2024-01-30T04:21:33;7.00;99.90
54126;DHT22;40360;52.992;6.796;2024-01-30T04:23:58;7.10;99.90
54126;DHT22;40360;52.992;6.796;2024-01-30T04:26:30;7.10;99.90
54126;DHT22;40360;52.992;6.796;2024-01-30T04:28:56;7.20;99.90
54126;DHT22;40360;52.992;6.796;2024-01-30T04:31:23;7.00;99.90
54126;DHT22;40360;52.992;6.796;2024-01-30T04:33:49;7.20;99.90
54126;DHT22;40360;52.992;6.796;2024-01-30T04:36:15;7.20;99.90
54126;DHT22;40360;52.992;6.796;2024-01-30T04:38:41;7.30;99.90
54126;DHT22;40360;52.992;6.796;2024-01-30T04:41:07;7.30;99.90
54126;DHT22;40360;52.992;6.796;2024-01-30T04:43:33;7.30;99.90
54126;DHT22;40360;52.992;6.796;2024-01-30T04:45:59;7.40;99.90
54126;DHT22;40360;52.992;6.796;2024-01-30T04:48:31;7.40;99.90
54126;DHT22;40360;52.992;6.796;2024-01-30T04:51:00;7.40;99.90
54126;DHT22;40360;52.992;6.796;2024-01-30T04:53:32;7.40;99.90
54126;DHT22;40360;52.992;6.796;2024-01-30T04:56:05;7.50;99.90
54126;DHT22;40360;52.992;6.796;2024-01-30T04:58:31;7.50;99.90
54126;DHT22;40360;52.992;6.796;2024-01-30T05:00:56;7.50;99.90
54126;DHT22;40360;52.992;6.796;2024-01-30T05:03:23;7.50;99.90
54126;DHT22;40360;52.992;6.796;2024-01-30T05:05:49;7.50;99.90
54126;DHT22;40360;52.992;6.796;2024-01-30T05:08:15;7.50;99.90
54126;DHT22;40360;52.992;6.796;2024-01-30T05:10:41;7.50;99.90
54126;DHT22;40360;52.992;6.796;2024-01-30T05:13:07;7.50;99.90
54126;DHT22;40360;52.992;6.796;2024-01-30T05:15:33;7.50;99.90
54126;DHT22;40360;52.992;6.796;2024-01-30T05:17:59;7.50;99.90
54126;DHT22;40360;52.992;6.796;2024-01-30T05:20:25;7.40;99.90
54126;DHT22;40360;52.992;6.796;2024-01-30T05:22:53;7.50;99.90
54126;DHT22;40360;52.992;6.796;2024-01-30T05:25:20;7.40;99.90
54126;DHT22;40360;52.992;6.796;2024-01-30T05:27:49;7.40;99.90
54126;DHT22;40360;52.992;6.796;2024-01-30T05:30:15;7.40;99.90
54126;DHT22;40360;52.992;6.796;2024-01-30T05:32:47;7.40;99.90
54126;DHT22;40360;52.992;6.796;2024-01-30T05:35:16;7.40;99.90
54126;DHT22;40360;52.992;6.796;2024-01-30T05:37:48;7.50;99.90
54126;DHT22;40360;52.992;6.796;2024-01-30T05:40:14;7.50;99.90
54126;DHT22;40360;52.992;6.796;2024-01-30T05:42:40;7.50;99.90
54126;DHT22;40360;52.992;6.796;2024-01-30T05:45:06;7.60;99.90
54126;DHT22;40360;52.992;6.796;2024-01-30T05:47:36;7.60;99.90
54126;DHT22;40360;52.992;6.796;2024-01-30T05:50:03;7.60;99.90
54126;DHT22;40360;52.992;6.796;2024-01-30T05:55:17;7.60;99.90
54126;DHT22;40360;52.992;6.796;2024-01-30T05:57:43;7.60;99.90
54126;DHT22;40360;52.992;6.796;2024-01-30T06:00:09;7.60;99.90
54126;DHT22;40360;52.992;6.796;2024-01-30T06:02:44;7.60;99.90
54126;DHT22;40360;52.992;6.796;2024-01-30T06:05:09;7.60;99.90
54126;DHT22;40360;52.992;6.796;2024-01-30T06:07:35;7.60;99.90
54126;DHT22;40360;52.992;6.796;2024-01-30T06:10:01;7.60;99.90
54126;DHT22;40360;52.992;6.796;2024-01-30T06:12:37;7.70;99.90
54126;DHT22;40360;52.992;6.796;2024-01-30T06:15:05;7.80;99.90
54126;DHT22;40360;52.992;6.796;2024-01-30T06:17:39;7.80;99.90
54126;DHT22;40360;52.992;6.796;2024-01-30T06:20:06;7.90;99.90
54126;DHT22;40360;52.992;6.796;2024-01-30T06:22:32;7.90;99.90
54126;DHT22;40360;52.992;6.796;2024-01-30T06:24:57;8.00;99.90
54126;DHT22;40360;52.992;6.796;2024-01-30T06:27:23;8.00;99.90
54126;DHT22;40360;52.992;6.796;2024-01-30T06:29:49;8.00;99.90
54126;DHT22;40360;52.992;6.796;2024-01-30T06:32:15;8.10;99.90
54126;DHT22;40360;52.992;6.796;2024-01-30T06:34:41;8.10;99.90
54126;DHT22;40360;52.992;6.796;2024-01-30T06:37:08;8.10;99.90
54126;DHT22;40360;52.992;6.796;2024-01-30T06:39:34;8.10;99.90
54126;DHT22;40360;52.992;6.796;2024-01-30T06:42:00;8.10;99.90
54126;DHT22;40360;52.992;6.796;2024-01-30T06:44:38;8.10;99.90
54126;DHT22;40360;52.992;6.796;2024-01-30T06:52:55;8.00;99.90
54126;DHT22;40360;52.992;6.796;2024-01-30T06:55:56;8.00;99.90
54126;DHT22;40360;52.992;6.796;2024-01-30T06:58:21;8.00;99.90
54126;DHT22;40360;52.992;6.796;2024-01-30T07:01:06;8.00;99.90
54126;DHT22;40360;52.992;6.796;2024-01-30T07:03:32;8.00;99.90
54126;DHT22;40360;52.992;6.796;2024-01-30T07:06:01;7.90;99.90
54126;DHT22;40360;52.992;6.796;2024-01-30T07:08:27;7.90;99.90
54126;DHT22;40360;52.992;6.796;2024-01-30T07:10:53;7.90;99.90
54126;DHT22;40360;52.992;6.796;2024-01-30T07:13:21;7.90;99.90
54126;DHT22;40360;52.992;6.796;2024-01-30T07:15:57;7.90;99.90
54126;DHT22;40360;52.992;6.796;2024-01-30T07:18:24;7.90;99.90
54126;DHT22;40360;52.992;6.796;2024-01-30T07:21:10;7.90;99.90
54126;DHT22;40360;52.992;6.796;2024-01-30T07:23:43;7.90;99.90
54126;DHT22;40360;52.992;6.796;2024-01-30T07:26:10;7.90;99.90
54126;DHT22;40360;52.992;6.796;2024-01-30T07:28:51;7.90;99.90
54126;DHT22;40360;52.992;6.796;2024-01-30T07:31:17;7.90;99.90
54126;DHT22;40360;52.992;6.796;2024-01-30T07:33:51;7.90;99.90
54126;DHT22;40360;52.992;6.796;2024-01-30T07:36:39;7.90;99.90
54126;DHT22;40360;52.992;6.796;2024-01-30T07:39:07;7.90;99.90
54126;DHT22;40360;52.992;6.796;2024-01-30T07:41:45;7.90;99.90
54126;DHT22;40360;52.992;6.796;2024-01-30T07:44:11;7.90;99.90
54126;DHT22;40360;52.992;6.796;2024-01-30T07:46:37;7.90;99.90
54126;DHT22;40360;52.992;6.796;2024-01-30T07:49:02;7.90;99.90
54126;DHT22;40360;52.992;6.796;2024-01-30T07:51:28;7.90;99.90
54126;DHT22;40360;52.992;6.796;2024-01-30T07:54:00;7.90;99.90
54126;DHT22;40360;52.992;6.796;2024-01-30T07:56:25;7.90;99.90
54126;DHT22;40360;52.992;6.796;2024-01-30T07:58:51;7.90;99.90
54126;DHT22;40360;52.992;6.796;2024-01-30T08:01:18;8.00;99.90
54126;DHT22;40360;52.992;6.796;2024-01-30T08:04:10;8.00;99.90
54126;DHT22;40360;52.992;6.796;2024-01-30T08:06:36;8.00;99.90
54126;DHT22;40360;52.992;6.796;2024-01-30T08:11:51;8.00;99.90
54126;DHT22;40360;52.992;6.796;2024-01-30T08:14:17;8.00;99.90
54126;DHT22;40360;52.992;6.796;2024-01-30T08:16:42;8.10;99.90
54126;DHT22;40360;52.992;6.796;2024-01-30T08:19:11;8.10;99.90
54126;DHT22;40360;52.992;6.796;2024-01-30T08:22:12;8.10;99.90
54126;DHT22;40360;52.992;6.796;2024-01-30T08:24:45;8.10;99.90
54126;DHT22;40360;52.992;6.796;2024-01-30T08:27:11;8.10;99.90
54126;DHT22;40360;52.992;6.796;2024-01-30T08:29:37;8.10;99.90
54126;DHT22;40360;52.992;6.796;2024-01-30T08:32:07;8.20;99.90
54126;DHT22;40360;52.992;6.796;2024-01-30T08:34:33;8.10;99.90
54126;DHT22;40360;52.992;6.796;2024-01-30T08:36:59;8.20;99.90
54126;DHT22;40360;52.992;6.796;2024-01-30T08:39:25;8.20;99.90
54126;DHT22;40360;52.992;6.796;2024-01-30T08:42:05;8.30;99.90
54126;DHT22;40360;52.992;6.796;2024-01-30T09:02:35;8.50;99.90
54126;DHT22;40360;52.992;6.796;2024-01-30T09:05:02;8.50;99.90
54126;DHT22;40360;52.992;6.796;2024-01-30T09:07:28;8.50;99.90
54126;DHT22;40360;52.992;6.796;2024-01-30T09:09:53;8.60;99.90
54126;DHT22;40360;52.992;6.796;2024-01-30T09:12:19;8.50;99.90
54126;DHT22;40360;52.992;6.796;2024-01-30T09:14:45;8.60;99.90
54126;DHT22;40360;52.992;6.796;2024-01-30T09:17:12;8.70;99.90
54126;DHT22;40360;52.992;6.796;2024-01-30T09:19:40;8.70;99.90
54126;DHT22;40360;52.992;6.796;2024-01-30T09:22:07;8.70;99.90
54126;DHT22;40360;52.992;6.796;2024-01-30T09:24:33;8.70;99.90
54126;DHT22;40360;52.992;6.796;2024-01-30T09:26:59;8.70;99.90
54126;DHT22;40360;52.992;6.796;2024-01-30T09:29:26;8.80;99.90
54126;DHT22;40360;52.992;6.796;2024-01-30T09:31:52;8.80;99.90
54126;DHT22;40360;52.992;6.796;2024-01-30T09:34:17;8.80;99.90
54126;DHT22;40360;52.992;6.796;2024-01-30T09:36:44;8.90;99.90
54126;DHT22;40360;52.992;6.796;2024-01-30T09:39:09;8.90;99.90
54126;DHT22;40360;52.992;6.796;2024-01-30T09:44:30;9.00;99.90
54126;DHT22;40360;52.992;6.796;2024-01-30T09:46:57;9.00;99.90
54126;DHT22;40360;52.992;6.796;2024-01-30T09:49:31;9.10;99.90
54126;DHT22;40360;52.992;6.796;2024-01-30T09:52:00;9.10;99.90
54126;DHT22;40360;52.992;6.796;2024-01-30T09:54:26;9.20;99.90
54126;DHT22;40360;52.992;6.796;2024-01-30T09:56:55;9.20;99.90
54126;DHT22;40360;52.992;6.796;2024-01-30T09:59:21;9.30;99.90
54126;DHT22;40360;52.992;6.796;2024-01-30T10:01:48;9.30;99.90
54126;DHT22;40360;52.992;6.796;2024-01-30T10:04:15;9.40;99.90
54126;DHT22;40360;52.992;6.796;2024-01-30T10:06:42;9.50;99.90
54126;DHT22;40360;52.992;6.796;2024-01-30T10:09:08;9.50;99.90
54126;DHT22;40360;52.992;6.796;2024-01-30T10:11:36;9.70;99.90
54126;DHT22;40360;52.992;6.796;2024-01-30T10:14:02;9.70;99.90
54126;DHT22;40360;52.992;6.796;2024-01-30T10:16:29;9.80;99.90
54126;DHT22;40360;52.992;6.796;2024-01-30T10:18:54;9.90;99.90
54126;DHT22;40360;52.992;6.796;2024-01-30T10:21:21;9.90;99.90
54126;DHT22;40360;52.992;6.796;2024-01-30T10:23:48;10.00;99.90
54126;DHT22;40360;52.992;6.796;2024-01-30T10:26:16;10.00;99.90
54126;DHT22;40360;52.992;6.796;2024-01-30T10:28:45;10.00;99.90
54126;DHT22;40360;52.992;6.796;2024-01-30T10:31:16;10.00;99.90
54126;DHT22;40360;52.992;6.796;2024-01-30T10:33:44;10.10;99.90
54126;DHT22;40360;52.992;6.796;2024-01-30T10:36:13;10.10;99.90
54126;DHT22;40360;52.992;6.796;2024-01-30T10:38:42;10.20;99.90
54126;DHT22;40360;52.992;6.796;2024-01-30T10:41:08;10.20;99.90
54126;DHT22;40360;52.992;6.796;2024-01-30T10:43:41;10.20;99.90
54126;DHT22;40360;52.992;6.796;2024-01-30T10:46:30;10.30;99.90
54126;DHT22;40360;52.992;6.796;2024-01-30T10:48:58;10.30;99.90
54126;DHT22;40360;52.992;6.796;2024-01-30T10:51:27;10.40;99.90
54126;DHT22;40360;52.992;6.796;2024-01-30T10:53:56;10.40;99.90
54126;DHT22;40360;52.992;6.796;2024-01-30T10:56:23;10.40;99.90
54126;DHT22;40360;52.992;6.796;2024-01-30T10:58:50;10.40;99.90
54126;DHT22;40360;52.992;6.796;2024-01-30T11:01:25;10.50;99.90
54126;DHT22;40360;52.992;6.796;2024-01-30T11:03:52;10.50;99.90
54126;DHT22;40360;52.992;6.796;2024-01-30T11:06:22;10.50;99.90
54126;DHT22;40360;52.992;6.796;2024-01-30T11:09:05;10.50;99.90
54126;DHT22;40360;52.992;6.796;2024-01-30T11:12:00;10.50;99.90
54126;DHT22;40360;52.992;6.796;2024-01-30T11:14:28;10.50;99.90
54126;DHT22;40360;52.992;6.796;2024-01-30T11:16:58;10.50;99.90
54126;DHT22;40360;52.992;6.796;2024-01-30T11:19:25;10.50;99.90
54126;DHT22;40360;52.992;6.796;2024-01-30T11:21:53;10.50;99.90
54126;DHT22;40360;52.992;6.796;2024-01-30T11:24:20;10.50;99.90
54126;DHT22;40360;52.992;6.796;2024-01-30T11:26:54;10.50;99.90
54126;DHT22;40360;52.992;6.796;2024-01-30T11:29:27;10.50;99.90
54126;DHT22;40360;52.992;6.796;2024-01-30T11:31:58;10.50;99.90
54126;DHT22;40360;52.992;6.796;2024-01-30T11:34:24;10.50;99.90
54126;DHT22;40360;52.992;6.796;2024-01-30T11:37:01;10.50;99.90
54126;DHT22;40360;52.992;6.796;2024-01-30T11:39:29;10.50;99.90
54126;DHT22;40360;52.992;6.796;2024-01-30T11:41:56;10.60;99.90
54126;DHT22;40360;52.992;6.796;2024-01-30T11:44:22;10.60;99.90
54126;DHT22;40360;52.992;6.796;2024-01-30T11:46:49;10.60;99.90
54126;DHT22;40360;52.992;6.796;2024-01-30T11:49:16;10.60;99.90
54126;DHT22;40360;52.992;6.796;2024-01-30T11:51:43;10.60;99.90
54126;DHT22;40360;52.992;6.796;2024-01-30T11:54:09;10.50;99.90
54126;DHT22;40360;52.992;6.796;2024-01-30T11:56:36;10.50;99.90
54126;DHT22;40360;52.992;6.796;2024-01-30T11:59:02;10.60;99.90
54126;DHT22;40360;52.992;6.796;2024-01-30T12:01:29;10.60;99.90
54126;DHT22;40360;52.992;6.796;2024-01-30T12:03:55;10.60;99.90
54126;DHT22;40360;52.992;6.796;2024-01-30T12:06:23;10.70;99.90
54126;DHT22;40360;52.992;6.796;2024-01-30T12:08:59;10.70;99.90
54126;DHT22;40360;52.992;6.796;2024-01-30T12:11:26;10.80;99.90
54126;DHT22;40360;52.992;6.796;2024-01-30T12:13:52;10.80;99.90
54126;DHT22;40360;52.992;6.796;2024-01-30T12:16:19;10.90;99.90
54126;DHT22;40360;52.992;6.796;2024-01-30T12:18:46;11.00;99.90
54126;DHT22;40360;52.992;6.796;2024-01-30T12:21:12;11.00;99.90
54126;DHT22;40360;52.992;6.796;2024-01-30T12:23:38;11.10;99.90
54126;DHT22;40360;52.992;6.796;2024-01-30T12:26:05;11.10;99.90
54126;DHT22;40360;52.992;6.796;2024-01-30T12:28:33;11.10;99.90
54126;DHT22;40360;52.992;6.796;2024-01-30T12:31:03;11.00;99.90
54126;DHT22;40360;52.992;6.796;2024-01-30T12:33:30;11.00;99.90
54126;DHT22;40360;52.992;6.796;2024-01-30T12:36:02;11.00;99.90
54126;DHT22;40360;52.992;6.796;2024-01-30T12:38:28;10.90;99.90
54126;DHT22;40360;52.992;6.796;2024-01-30T12:40:54;10.90;99.90
54126;DHT22;40360;52.992;6.796;2024-01-30T12:43:26;10.80;99.90
54126;DHT22;40360;52.992;6.796;2024-01-30T12:45:53;10.70;99.90
54126;DHT22;40360;52.992;6.796;2024-01-30T12:48:19;10.60;99.90
54126;DHT22;40360;52.992;6.796;2024-01-30T12:50:45;10.60;99.90
54126;DHT22;40360;52.992;6.796;2024-01-30T12:53:11;10.50;99.90
54126;DHT22;40360;52.992;6.796;2024-01-30T12:55:38;10.50;99.90
54126;DHT22;40360;52.992;6.796;2024-01-30T12:58:04;10.50;99.90
54126;DHT22;40360;52.992;6.796;2024-01-30T13:00:30;10.40;99.90
54126;DHT22;40360;52.992;6.796;2024-01-30T13:02:56;10.40;99.90
54126;DHT22;40360;52.992;6.796;2024-01-30T13:05:45;10.30;99.90
54126;DHT22;40360;52.992;6.796;2024-01-30T13:08:11;10.20;99.90
54126;DHT22;40360;52.992;6.796;2024-01-30T13:10:37;10.20;99.90
54126;DHT22;40360;52.992;6.796;2024-01-30T13:13:03;10.20;99.90
54126;DHT22;40360;52.992;6.796;2024-01-30T13:15:30;10.10;99.90
54126;DHT22;40360;52.992;6.796;2024-01-30T13:17:56;10.10;99.90
54126;DHT22;40360;52.992;6.796;2024-01-30T13:20:21;10.10;99.90
54126;DHT22;40360;52.992;6.796;2024-01-30T13:22:48;10.00;99.90
54126;DHT22;40360;52.992;6.796;2024-01-30T13:25:15;10.00;99.90
54126;DHT22;40360;52.992;6.796;2024-01-30T13:27:41;10.00;99.90
54126;DHT22;40360;52.992;6.796;2024-01-30T13:30:08;10.00;99.90
54126;DHT22;40360;52.992;6.796;2024-01-30T13:32:35;10.00;99.90
54126;DHT22;40360;52.992;6.796;2024-01-30T13:35:01;9.90;99.90
54126;DHT22;40360;52.992;6.796;2024-01-30T13:37:27;9.90;99.90
54126;DHT22;40360;52.992;6.796;2024-01-30T13:39:53;9.90;99.90
54126;DHT22;40360;52.992;6.796;2024-01-30T13:42:19;9.90;99.90
54126;DHT22;40360;52.992;6.796;2024-01-30T13:44:45;9.90;99.90
54126;DHT22;40360;52.992;6.796;2024-01-30T13:47:11;9.80;99.90
54126;DHT22;40360;52.992;6.796;2024-01-30T13:49:37;9.80;99.90
54126;DHT22;40360;52.992;6.796;2024-01-30T13:52:04;9.80;99.90
54126;DHT22;40360;52.992;6.796;2024-01-30T13:54:30;9.80;99.90
54126;DHT22;40360;52.992;6.796;2024-01-30T13:56:57;9.70;99.90
54126;DHT22;40360;52.992;6.796;2024-01-30T13:59:23;9.70;99.90
54126;DHT22;40360;52.992;6.796;2024-01-30T14:01:50;9.80;99.90
54126;DHT22;40360;52.992;6.796;2024-01-30T14:04:16;9.80;99.90
54126;DHT22;40360;52.992;6.796;2024-01-30T14:06:42;9.80;99.90
54126;DHT22;40360;52.992;6.796;2024-01-30T14:09:08;9.80;99.90
54126;DHT22;40360;52.992;6.796;2024-01-30T14:11:34;9.80;99.90
54126;DHT22;40360;52.992;6.796;2024-01-30T14:13:59;9.70;99.90
54126;DHT22;40360;52.992;6.796;2024-01-30T14:16:25;9.70;99.90
54126;DHT22;40360;52.992;6.796;2024-01-30T14:18:52;9.70;99.90
54126;DHT22;40360;52.992;6.796;2024-01-30T14:21:18;9.70;99.90
54126;DHT22;40360;52.992;6.796;2024-01-30T14:23:45;9.70;99.90
54126;DHT22;40360;52.992;6.796;2024-01-30T14:26:13;9.60;99.90
54126;DHT22;40360;52.992;6.796;2024-01-30T14:28:39;9.70;99.90
54126;DHT22;40360;52.992;6.796;2024-01-30T14:31:04;9.60;99.90
54126;DHT22;40360;52.992;6.796;2024-01-30T14:33:31;9.60;99.90
54126;DHT22;40360;52.992;6.796;2024-01-30T14:35:57;9.60;99.90
54126;DHT22;40360;52.992;6.796;2024-01-30T14:38:23;9.60;99.90
54126;DHT22;40360;52.992;6.796;2024-01-30T14:40:50;9.60;99.90
54126;DHT22;40360;52.992;6.796;2024-01-30T14:43:16;9.60;99.90
54126;DHT22;40360;52.992;6.796;2024-01-30T14:45:43;9.50;99.90
54126;DHT22;40360;52.992;6.796;2024-01-30T14:48:11;9.50;99.90
54126;DHT22;40360;52.992;6.796;2024-01-30T14:50:37;9.40;99.90
54126;DHT22;40360;52.992;6.796;2024-01-30T14:53:03;9.30;99.90
54126;DHT22;40360;52.992;6.796;2024-01-30T14:55:29;9.30;99.90
54126;DHT22;40360;52.992;6.796;2024-01-30T14:57:55;9.20;99.90
54126;DHT22;40360;52.992;6.796;2024-01-30T15:00:21;9.10;99.90
54126;DHT22;40360;52.992;6.796;2024-01-30T15:02:47;9.10;99.90
54126;DHT22;40360;52.992;6.796;2024-01-30T15:05:13;9.10;99.90
54126;DHT22;40360;52.992;6.796;2024-01-30T15:07:39;9.10;99.90
54126;DHT22;40360;52.992;6.796;2024-01-30T15:10:05;9.10;99.90
54126;DHT22;40360;52.992;6.796;2024-01-30T15:12:32;9.00;99.90
54126;DHT22;40360;52.992;6.796;2024-01-30T15:14:57;9.00;99.90
54126;DHT22;40360;52.992;6.796;2024-01-30T15:17:23;9.00;99.90
54126;DHT22;40360;52.992;6.796;2024-01-30T15:19:49;9.00;99.90
54126;DHT22;40360;52.992;6.796;2024-01-30T15:22:16;9.00;99.90
54126;DHT22;40360;52.992;6.796;2024-01-30T15:24:42;9.00;99.90
54126;DHT22;40360;52.992;6.796;2024-01-30T15:27:08;9.00;99.90
54126;DHT22;40360;52.992;6.796;2024-01-30T15:29:33;8.90;99.90
54126;DHT22;40360;52.992;6.796;2024-01-30T15:31:59;8.90;99.90
54126;DHT22;40360;52.992;6.796;2024-01-30T15:34:25;8.90;99.90
54126;DHT22;40360;52.992;6.796;2024-01-30T15:36:50;8.90;99.90
54126;DHT22;40360;52.992;6.796;2024-01-30T15:39:17;8.80;99.90
54126;DHT22;40360;52.992;6.796;2024-01-30T15:41:43;8.80;99.90
54126;DHT22;40360;52.992;6.796;2024-01-30T15:44:09;8.80;99.90
54126;DHT22;40360;52.992;6.796;2024-01-30T15:46:35;8.70;99.90
54126;DHT22;40360;52.992;6.796;2024-01-30T15:49:02;8.70;99.90
54126;DHT22;40360;52.992;6.796;2024-01-30T15:51:30;8.60;99.90
54126;DHT22;40360;52.992;6.796;2024-01-30T15:53:56;8.60;99.90
54126;DHT22;40360;52.992;6.796;2024-01-30T15:56:41;8.50;99.90
54126;DHT22;40360;52.992;6.796;2024-01-30T15:59:09;8.40;99.90
54126;DHT22;40360;52.992;6.796;2024-01-30T16:01:35;8.40;99.90
54126;DHT22;40360;52.992;6.796;2024-01-30T16:04:01;8.30;99.90
54126;DHT22;40360;52.992;6.796;2024-01-30T16:06:27;8.30;99.90
54126;DHT22;40360;52.992;6.796;2024-01-30T16:08:53;8.30;99.90
54126;DHT22;40360;52.992;6.796;2024-01-30T16:11:18;8.30;99.90
54126;DHT22;40360;52.992;6.796;2024-01-30T16:13:44;8.20;99.90
54126;DHT22;40360;52.992;6.796;2024-01-30T16:16:11;8.30;99.90
54126;DHT22;40360;52.992;6.796;2024-01-30T16:18:37;8.30;99.90